createdAt,value
2022-08-24T00:01:17.920Z,18.71
2022-08-24T00:03:46.822Z,18.67
2022-08-24T00:06:17.674Z,18.63
2022-08-24T00:08:45.842Z,18.63
2022-08-24T00:11:14.017Z,18.64
2022-08-24T00:13:42.505Z,18.63
2022-08-24T00:16:12.654Z,18.62
2022-08-24T00:18:41.374Z,18.59
2022-08-24T00:21:10.067Z,18.58
2022-08-24T00:23:38.125Z,18.55
2022-08-24T00:26:06.641Z,18.54
2022-08-24T00:28:35.071Z,18.50
2022-08-24T00:31:03.587Z,18.49
2022-08-24T00:33:35.067Z,18.47
2022-08-24T00:36:03.415Z,18.42
2022-08-24T00:38:35.552Z,18.42
2022-08-24T00:41:04.793Z,18.40
2022-08-24T00:43:34.047Z,18.37
2022-08-24T00:46:10.954Z,18.35
2022-08-24T00:48:43.628Z,18.36
2022-08-24T00:51:15.895Z,18.34
2022-08-24T00:53:48.983Z,18.31
2022-08-24T00:56:20.546Z,18.30
2022-08-24T00:58:56.916Z,18.26
2022-08-24T01:01:26.389Z,18.21
2022-08-24T01:03:57.229Z,18.14
2022-08-24T01:06:26.064Z,18.15
2022-08-24T01:08:56.408Z,18.15
2022-08-24T01:11:27.554Z,18.10
2022-08-24T01:13:58.069Z,18.08
2022-08-24T01:16:43.876Z,18.07
2022-08-24T01:19:22.330Z,18.02
2022-08-24T01:21:57.476Z,18.01
2022-08-24T01:24:26.865Z,17.97
2022-08-24T01:26:54.948Z,17.90
2022-08-24T01:29:26.552Z,17.89
2022-08-24T01:31:54.784Z,17.86
2022-08-24T01:34:23.013Z,17.84
2022-08-24T01:36:55.988Z,17.83
2022-08-24T01:39:28.470Z,17.78
2022-08-24T01:41:56.914Z,17.76
2022-08-24T01:44:27.641Z,17.69
2022-08-24T01:46:56.755Z,17.65
2022-08-24T01:49:27.866Z,17.58
2022-08-24T01:51:56.063Z,17.54
2022-08-24T01:54:25.373Z,17.52
2022-08-24T01:56:54.922Z,17.52
2022-08-24T01:59:23.756Z,17.54
2022-08-24T02:01:54.909Z,17.53
2022-08-24T02:04:23.519Z,17.56
2022-08-24T02:06:52.016Z,17.58
2022-08-24T02:09:20.081Z,17.57
2022-08-24T02:11:48.526Z,17.57
2022-08-24T02:14:19.312Z,17.55
2022-08-24T02:16:48.102Z,17.54
2022-08-24T02:19:24.107Z,17.55
2022-08-24T02:21:52.539Z,17.54
2022-08-24T02:24:20.621Z,17.56
2022-08-24T02:26:49.217Z,17.53
2022-08-24T02:29:18.757Z,17.50
2022-08-24T02:31:46.818Z,17.45
2022-08-24T02:34:14.897Z,17.47
2022-08-24T02:36:43.203Z,17.40
2022-08-24T02:39:11.352Z,17.38
2022-08-24T02:41:40.262Z,17.37
2022-08-24T02:44:08.570Z,17.34
2022-08-24T02:46:38.062Z,17.32
2022-08-24T02:49:11.121Z,17.22
2022-08-24T02:51:44.475Z,17.14
2022-08-24T02:54:17.728Z,17.11
2022-08-24T02:56:46.621Z,17.06
2022-08-24T02:59:15.483Z,17.04
2022-08-24T03:01:45.363Z,17.04
2022-08-24T03:04:14.455Z,17.04
2022-08-24T03:06:43.024Z,16.98
2022-08-24T03:09:11.307Z,16.92
2022-08-24T03:11:40.283Z,16.89
2022-08-24T03:14:13.245Z,16.91
2022-08-24T03:16:41.517Z,16.89
2022-08-24T03:19:10.985Z,16.86
2022-08-24T03:21:40.122Z,16.85
2022-08-24T03:24:08.455Z,16.84
2022-08-24T03:26:37.209Z,16.85
2022-08-24T03:29:05.230Z,16.85
2022-08-24T03:31:35.577Z,16.84
2022-08-24T03:34:03.657Z,16.81
2022-08-24T03:36:33.117Z,16.81
2022-08-24T03:39:01.160Z,16.79
2022-08-24T03:41:29.382Z,16.74
2022-08-24T03:43:57.748Z,16.75
2022-08-24T03:46:29.169Z,16.74
2022-08-24T03:48:58.862Z,16.77
2022-08-24T03:51:28.947Z,16.76
2022-08-24T03:54:00.176Z,16.76
2022-08-24T03:56:29.841Z,16.75
2022-08-24T03:58:57.962Z,16.77
2022-08-24T04:01:29.608Z,16.74
2022-08-24T04:03:59.215Z,16.66
2022-08-24T04:06:32.001Z,16.57
2022-08-24T04:09:01.757Z,16.49
2022-08-24T04:11:37.457Z,16.46
2022-08-24T04:14:10.340Z,16.48
2022-08-24T04:16:59.768Z,16.49
2022-08-24T04:19:34.904Z,16.49
2022-08-24T04:22:03.188Z,16.48
2022-08-24T04:24:32.657Z,16.50
2022-08-24T04:27:00.811Z,16.49
2022-08-24T04:29:28.891Z,16.51
2022-08-24T04:31:57.976Z,16.51
2022-08-24T04:34:27.798Z,16.52
2022-08-24T04:36:55.975Z,16.53
2022-08-24T04:39:24.041Z,16.53
2022-08-24T04:42:26.698Z,16.52
2022-08-24T04:44:55.458Z,16.50
2022-08-24T04:47:25.338Z,16.50
2022-08-24T04:49:53.863Z,16.49
2022-08-24T04:52:22.112Z,16.46
2022-08-24T04:54:50.416Z,16.48
2022-08-24T04:57:22.331Z,16.49
2022-08-24T04:59:51.905Z,16.50
2022-08-24T05:02:20.984Z,16.51
2022-08-24T05:04:50.655Z,16.49
2022-08-24T05:07:19.754Z,16.49
2022-08-24T05:09:47.770Z,16.48
2022-08-24T05:12:20.872Z,16.50
2022-08-24T05:14:58.598Z,16.50
2022-08-24T05:17:27.407Z,16.53
2022-08-24T05:19:55.624Z,16.53
2022-08-24T05:22:23.662Z,16.51
2022-08-24T05:24:54.912Z,16.54
2022-08-24T05:27:25.228Z,16.56
2022-08-24T05:29:54.800Z,16.60
2022-08-24T05:32:25.315Z,16.61
2022-08-24T05:34:54.677Z,16.64
2022-08-24T05:37:23.450Z,16.65
2022-08-24T05:40:09.257Z,16.66
2022-08-24T05:42:40.374Z,16.70
2022-08-24T05:45:12.787Z,16.70
2022-08-24T05:47:42.332Z,16.71
2022-08-24T05:50:45.729Z,16.73
2022-08-24T05:53:15.274Z,16.79
2022-08-24T05:55:45.015Z,16.81
2022-08-24T05:58:18.527Z,16.83
2022-08-24T06:00:55.322Z,16.88
2022-08-24T06:03:24.818Z,16.91
2022-08-24T06:05:55.060Z,16.92
2022-08-24T06:08:23.857Z,16.93
2022-08-24T06:10:52.173Z,16.96
2022-08-24T06:13:20.259Z,17.03
2022-08-24T06:16:10.949Z,17.07
2022-08-24T06:18:39.221Z,17.14
2022-08-24T06:21:10.272Z,17.17
2022-08-24T06:23:44.109Z,17.21
2022-08-24T06:26:30.544Z,17.22
2022-08-24T06:29:00.391Z,17.26
2022-08-24T06:31:29.012Z,17.33
2022-08-24T06:34:09.639Z,17.39
2022-08-24T06:36:40.071Z,17.41
2022-08-24T06:39:09.561Z,17.48
2022-08-24T06:41:42.660Z,17.51
2022-08-24T06:44:12.816Z,17.53
2022-08-24T06:46:56.842Z,17.60
2022-08-24T06:49:26.377Z,17.55
2022-08-24T06:51:54.654Z,17.62
2022-08-24T06:54:22.884Z,17.70
2022-08-24T06:56:51.337Z,17.75
2022-08-24T06:59:20.986Z,17.79
2022-08-24T07:01:49.233Z,17.81
2022-08-24T07:04:17.350Z,17.88
2022-08-24T07:07:09.903Z,17.97
2022-08-24T07:09:39.168Z,17.97
2022-08-24T07:12:07.944Z,18.03
2022-08-24T07:14:36.864Z,18.15
2022-08-24T07:17:04.974Z,18.19
2022-08-24T07:19:33.930Z,18.32
2022-08-24T07:22:02.554Z,18.41
2022-08-24T07:24:32.348Z,18.49
2022-08-24T07:27:01.164Z,18.55
2022-08-24T07:29:48.495Z,18.61
2022-08-24T07:32:18.220Z,18.77
2022-08-24T07:34:46.981Z,18.84
2022-08-24T07:37:15.067Z,18.93
2022-08-24T07:39:48.726Z,18.98
2022-08-24T07:42:25.577Z,19.06
2022-08-24T07:44:57.840Z,19.12
2022-08-24T07:47:49.550Z,19.16
2022-08-24T07:50:28.215Z,19.23
2022-08-24T07:52:56.284Z,19.25
2022-08-24T07:55:26.236Z,19.35
2022-08-24T07:57:54.758Z,19.45
2022-08-24T08:00:23.586Z,19.49
2022-08-24T08:02:57.636Z,19.51
2022-08-24T08:05:25.980Z,19.58
2022-08-24T08:07:55.364Z,19.69
2022-08-24T08:10:25.443Z,19.76
2022-08-24T08:12:54.554Z,19.76
2022-08-24T08:15:22.824Z,19.81
2022-08-24T08:18:03.301Z,19.90
2022-08-24T08:20:32.468Z,19.95
2022-08-24T08:23:19.157Z,20.00
2022-08-24T08:25:59.460Z,20.15
2022-08-24T08:28:42.629Z,20.19
2022-08-24T08:31:11.146Z,20.22
2022-08-24T08:33:40.667Z,20.21
2022-08-24T08:36:11.344Z,20.38
2022-08-24T08:38:45.336Z,20.47
2022-08-24T08:41:44.098Z,20.51
2022-08-24T08:44:20.225Z,20.57
2022-08-24T08:46:58.112Z,20.66
2022-08-24T08:50:16.293Z,20.66
2022-08-24T08:53:07.576Z,20.77
2022-08-24T08:55:41.445Z,20.84
2022-08-24T08:58:35.267Z,20.87
2022-08-24T09:01:11.010Z,20.95
2022-08-24T09:04:07.168Z,21.02
2022-08-24T09:07:00.373Z,21.10
2022-08-24T09:09:52.295Z,21.20
2022-08-24T09:12:25.319Z,21.25
2022-08-24T09:15:05.457Z,21.21
2022-08-24T09:17:45.754Z,21.25
2022-08-24T09:20:24.972Z,21.16
2022-08-24T09:23:04.804Z,21.27
2022-08-24T09:25:38.633Z,21.35
2022-08-24T09:28:16.228Z,21.37
2022-08-24T09:31:10.918Z,21.54
2022-08-24T09:33:43.286Z,21.62
2022-08-24T09:36:20.088Z,21.66
2022-08-24T09:39:08.917Z,21.72
2022-08-24T09:41:52.890Z,21.75
2022-08-24T09:44:46.395Z,21.78
2022-08-24T09:48:16.081Z,21.84
2022-08-24T09:50:56.473Z,21.97
2022-08-24T09:53:48.973Z,22.05
2022-08-24T09:56:36.327Z,22.17
2022-08-24T09:59:21.686Z,22.25
2022-08-24T10:01:58.602Z,22.28
2022-08-24T10:04:33.433Z,22.35
2022-08-24T10:07:13.156Z,22.39
2022-08-24T10:09:55.541Z,22.49
2022-08-24T10:12:44.201Z,22.39
2022-08-24T10:15:16.385Z,22.48
2022-08-24T10:18:07.823Z,22.60
2022-08-24T10:21:06.281Z,22.66
2022-08-24T10:23:47.335Z,22.73
2022-08-24T10:26:21.077Z,22.70
2022-08-24T10:29:18.480Z,22.75
2022-08-24T10:32:04.042Z,22.80
2022-08-24T10:34:40.890Z,22.81
2022-08-24T10:37:34.349Z,22.78
2022-08-24T10:40:13.756Z,22.87
2022-08-24T10:43:14.819Z,22.96
2022-08-24T10:46:15.210Z,22.93
2022-08-24T10:49:08.616Z,22.94
2022-08-24T10:51:45.902Z,22.98
2022-08-24T10:54:14.586Z,23.16
2022-08-24T10:56:50.391Z,23.33
2022-08-24T10:59:24.356Z,23.37
2022-08-24T11:02:10.025Z,23.40
2022-08-24T11:04:41.717Z,23.44
2022-08-24T11:07:18.451Z,23.51
2022-08-24T11:09:53.518Z,23.58
2022-08-24T11:12:29.851Z,23.62
2022-08-24T11:15:01.249Z,23.68
2022-08-24T11:17:31.182Z,23.71
2022-08-24T11:20:00.247Z,23.82
2022-08-24T11:22:37.846Z,23.75
2022-08-24T11:25:12.241Z,23.83
2022-08-24T11:27:43.456Z,23.87
2022-08-24T11:30:16.101Z,23.92
2022-08-24T11:32:46.560Z,24.00
2022-08-24T11:35:23.699Z,24.15
2022-08-24T11:37:53.422Z,24.23
2022-08-24T11:40:24.221Z,24.17
2022-08-24T11:43:18.219Z,24.14
2022-08-24T11:45:55.929Z,24.14
2022-08-24T11:48:36.104Z,24.22
2022-08-24T11:51:09.417Z,24.40
2022-08-24T11:56:21.403Z,24.50
2022-08-24T11:58:56.204Z,24.56
2022-08-24T12:01:27.428Z,24.64
2022-08-24T12:04:10.572Z,24.66
2022-08-24T12:06:49.074Z,24.77
2022-08-24T12:09:25.249Z,24.75
2022-08-24T12:11:59.731Z,24.84
2022-08-24T12:14:34.879Z,24.89
2022-08-24T12:17:07.524Z,24.92
2022-08-24T12:19:38.786Z,24.87
2022-08-24T12:22:08.673Z,25.05
2022-08-24T12:24:41.129Z,25.06
2022-08-24T12:27:11.803Z,25.15
2022-08-24T12:29:44.632Z,25.23
2022-08-24T12:32:16.027Z,25.24
2022-08-24T12:34:58.051Z,25.25
2022-08-24T12:37:30.169Z,25.32
2022-08-24T12:40:06.734Z,25.28
2022-08-24T12:42:41.220Z,25.36
2022-08-24T12:45:12.654Z,25.45
2022-08-24T12:47:46.460Z,25.43
2022-08-24T12:50:23.246Z,25.46
2022-08-24T12:53:18.679Z,25.51
2022-08-24T12:56:14.803Z,25.44
2022-08-24T12:58:56.381Z,25.41
2022-08-24T13:01:29.726Z,25.40
2022-08-24T13:04:10.606Z,25.45
2022-08-24T13:06:42.422Z,25.51
2022-08-24T13:09:17.091Z,25.52
2022-08-24T13:11:46.715Z,25.56
2022-08-24T13:14:20.827Z,25.66
2022-08-24T13:17:09.908Z,25.80
2022-08-24T13:19:41.053Z,25.77
2022-08-24T13:22:48.106Z,25.88
2022-08-24T13:25:44.796Z,25.83
2022-08-24T13:28:37.746Z,25.81
2022-08-24T13:31:27.282Z,25.75
2022-08-24T13:34:00.751Z,25.82
2022-08-24T13:37:05.959Z,25.77
2022-08-24T13:39:41.813Z,25.78
2022-08-24T13:42:16.969Z,25.93
2022-08-24T13:45:02.767Z,25.94
2022-08-24T13:47:36.005Z,25.88
2022-08-24T13:50:11.610Z,26.02
2022-08-24T13:52:48.241Z,25.95
2022-08-24T13:55:29.866Z,26.09
2022-08-24T13:58:11.415Z,26.10
2022-08-24T14:00:44.010Z,26.19
2022-08-24T14:04:00.079Z,26.24
2022-08-24T14:06:36.948Z,26.17
2022-08-24T14:09:19.779Z,26.19
2022-08-24T14:12:08.447Z,26.40
2022-08-24T14:14:51.362Z,26.59
2022-08-24T14:17:45.054Z,26.54
2022-08-24T14:20:22.200Z,26.70
2022-08-24T14:23:00.470Z,26.83
2022-08-24T14:25:33.197Z,26.58
2022-08-24T14:28:25.454Z,26.46
2022-08-24T14:31:16.734Z,26.58
2022-08-24T14:33:50.905Z,26.56
2022-08-24T14:36:22.089Z,26.51
2022-08-24T14:39:02.359Z,26.63
2022-08-24T14:41:44.354Z,26.60
2022-08-24T14:44:44.863Z,26.60
2022-08-24T14:47:20.592Z,26.60
2022-08-24T14:50:03.161Z,26.56
2022-08-24T14:52:56.877Z,26.64
2022-08-24T14:55:32.273Z,26.50
2022-08-24T14:58:11.351Z,26.40
2022-08-24T15:01:03.952Z,26.45
2022-08-24T15:03:59.650Z,26.51
2022-08-24T15:06:30.667Z,26.35
2022-08-24T15:09:10.649Z,26.50
2022-08-24T15:11:42.524Z,26.66
2022-08-24T15:14:23.558Z,26.86
2022-08-24T15:16:55.458Z,26.96
2022-08-24T15:19:28.735Z,26.85
2022-08-24T15:21:58.360Z,26.94
2022-08-24T15:24:38.576Z,26.88
2022-08-24T15:27:19.308Z,26.94
2022-08-24T15:29:53.450Z,26.92
2022-08-24T15:32:22.885Z,26.74
2022-08-24T15:34:58.404Z,26.88
2022-08-24T15:37:30.145Z,26.91
2022-08-24T15:39:58.802Z,26.97
2022-08-24T15:42:29.499Z,26.95
2022-08-24T15:45:01.952Z,26.69
2022-08-24T15:47:32.321Z,26.62
2022-08-24T15:50:02.157Z,26.52
2022-08-24T15:52:43.812Z,26.44
2022-08-24T15:55:27.713Z,26.46
2022-08-24T15:57:58.703Z,26.41
2022-08-24T16:00:54.208Z,26.28
2022-08-24T16:03:26.090Z,26.38
2022-08-24T16:05:57.090Z,26.34
2022-08-24T16:08:25.347Z,26.40
2022-08-24T16:10:58.676Z,26.45
2022-08-24T16:13:30.415Z,26.44
2022-08-24T16:16:03.043Z,26.37
2022-08-24T16:18:45.934Z,26.15
2022-08-24T16:21:17.524Z,26.08
2022-08-24T16:23:56.265Z,25.81
2022-08-24T16:26:26.927Z,25.77
2022-08-24T16:28:57.136Z,25.86
2022-08-24T16:31:51.838Z,25.82
2022-08-24T16:34:29.066Z,25.92
2022-08-24T16:36:57.340Z,25.88
2022-08-24T16:39:25.622Z,25.81
2022-08-24T16:41:56.098Z,25.74
2022-08-24T16:44:26.841Z,25.63
2022-08-24T16:46:54.870Z,25.68
2022-08-24T16:49:23.020Z,25.74
2022-08-24T16:51:51.065Z,25.67
2022-08-24T16:54:19.660Z,25.64
2022-08-24T16:56:47.720Z,25.48
2022-08-24T16:59:21.870Z,25.32
2022-08-24T17:01:51.330Z,25.29
2022-08-24T17:04:19.424Z,25.29
2022-08-24T17:06:49.603Z,25.35
2022-08-24T17:09:19.422Z,25.27
2022-08-24T17:11:47.647Z,25.22
2022-08-24T17:14:15.926Z,25.27
2022-08-24T17:16:44.110Z,25.18
2022-08-24T17:19:17.010Z,25.17
2022-08-24T17:21:45.648Z,25.18
2022-08-24T17:24:13.821Z,25.05
2022-08-24T17:26:47.521Z,25.07
2022-08-24T17:29:18.589Z,24.97
2022-08-24T17:31:49.851Z,24.95
2022-08-24T17:34:20.914Z,24.90
2022-08-24T17:36:50.817Z,24.82
2022-08-24T17:39:19.795Z,24.83
2022-08-24T17:41:48.578Z,24.85
2022-08-24T17:44:21.042Z,24.84
2022-08-24T17:46:50.525Z,24.83
2022-08-24T17:49:20.322Z,24.81
2022-08-24T17:51:49.663Z,24.79
2022-08-24T17:54:17.772Z,24.76
2022-08-24T17:56:48.753Z,24.73
2022-08-24T17:59:23.571Z,24.69
2022-08-24T18:01:54.462Z,24.65
2022-08-24T18:04:27.587Z,24.58
2022-08-24T18:06:56.776Z,24.54
2022-08-24T18:09:29.589Z,24.51
2022-08-24T18:12:01.241Z,24.46
2022-08-24T18:14:30.399Z,24.42
2022-08-24T18:17:00.008Z,24.36
2022-08-24T18:19:29.471Z,24.32
2022-08-24T18:21:57.510Z,24.26
2022-08-24T18:24:25.981Z,24.19
2022-08-24T18:26:54.061Z,24.16
2022-08-24T18:29:22.890Z,24.10
2022-08-24T18:31:51.174Z,24.05
2022-08-24T18:34:21.768Z,23.99
2022-08-24T18:36:51.355Z,23.90
2022-08-24T18:39:20.081Z,23.87
2022-08-24T18:41:49.289Z,23.83
2022-08-24T18:44:19.990Z,23.78
2022-08-24T18:46:48.993Z,23.75
2022-08-24T18:49:17.629Z,23.70
2022-08-24T18:51:48.120Z,23.63
2022-08-24T18:54:20.130Z,23.57
2022-08-24T18:56:48.196Z,23.52
2022-08-24T18:59:18.490Z,23.46
2022-08-24T19:02:05.544Z,23.41
2022-08-24T19:04:34.227Z,23.37
2022-08-24T19:07:02.288Z,23.33
2022-08-24T19:09:34.341Z,23.29
2022-08-24T19:12:03.485Z,23.26
2022-08-24T19:14:31.785Z,23.22
2022-08-24T19:16:59.819Z,23.17
2022-08-24T19:19:27.955Z,23.13
2022-08-24T19:21:56.465Z,23.09
2022-08-24T19:24:26.147Z,23.04
2022-08-24T19:26:56.211Z,23.00
2022-08-24T19:29:54.576Z,22.95
2022-08-24T19:32:21.758Z,22.90
2022-08-24T19:34:50.722Z,22.85
2022-08-24T19:37:19.233Z,22.82
2022-08-24T19:39:47.810Z,22.77
2022-08-24T19:42:18.145Z,22.72
2022-08-24T19:45:04.472Z,22.69
2022-08-24T19:47:34.513Z,22.63
2022-08-24T19:50:03.039Z,22.58
2022-08-24T19:52:32.940Z,22.55
2022-08-24T19:55:01.193Z,22.50
2022-08-24T19:57:38.397Z,22.45
2022-08-24T20:00:24.662Z,22.40
2022-08-24T20:02:54.409Z,22.36
2022-08-24T20:05:24.717Z,22.32
2022-08-24T20:07:52.848Z,22.28
2022-08-24T20:10:22.678Z,22.24
2022-08-24T20:12:52.499Z,22.21
2022-08-24T20:15:21.441Z,22.17
2022-08-24T20:17:50.119Z,22.13
2022-08-24T20:20:20.369Z,22.10
2022-08-24T20:22:48.769Z,22.07
2022-08-24T20:25:17.207Z,22.03
2022-08-24T20:27:46.593Z,21.96
2022-08-24T20:30:16.713Z,21.90
2022-08-24T20:32:44.871Z,21.86
2022-08-24T20:35:16.114Z,21.80
2022-08-24T20:37:44.171Z,21.75
2022-08-24T20:40:15.923Z,21.69
2022-08-24T20:42:44.204Z,21.66
2022-08-24T20:45:13.970Z,21.60
2022-08-24T20:47:47.689Z,21.56
2022-08-24T20:50:17.570Z,21.50
2022-08-24T20:52:45.656Z,21.44
2022-08-24T20:55:14.521Z,21.38
2022-08-24T20:57:48.086Z,21.34
2022-08-24T21:00:18.291Z,21.31
2022-08-24T21:02:47.949Z,21.28
2022-08-24T21:05:16.083Z,21.23
2022-08-24T21:07:49.501Z,21.16
2022-08-24T21:10:18.645Z,21.13
2022-08-24T21:12:46.630Z,21.10
2022-08-24T21:15:14.658Z,21.08
2022-08-24T21:17:42.940Z,21.05
2022-08-24T21:20:14.710Z,21.03
2022-08-24T21:22:42.807Z,21.00
2022-08-24T21:25:11.509Z,20.95
2022-08-24T21:27:42.106Z,20.94
2022-08-24T21:30:12.051Z,20.90
2022-08-24T21:32:57.751Z,20.89
2022-08-24T21:35:27.148Z,20.87
2022-08-24T21:37:55.428Z,20.85
2022-08-24T21:40:24.415Z,20.81
2022-08-24T21:42:52.697Z,20.77
2022-08-24T21:45:20.796Z,20.75
2022-08-24T21:47:48.806Z,20.73
2022-08-24T21:50:18.223Z,20.71
2022-08-24T21:52:51.230Z,20.70
2022-08-24T21:55:31.687Z,20.66
2022-08-24T21:57:59.705Z,20.65
2022-08-24T22:00:27.764Z,20.64
2022-08-24T22:02:55.881Z,20.62
2022-08-24T22:05:24.006Z,20.60
2022-08-24T22:07:53.376Z,20.58
2022-08-24T22:10:21.747Z,20.57
2022-08-24T22:12:50.108Z,20.55
2022-08-24T22:15:19.654Z,20.50
2022-08-24T22:17:52.847Z,20.47
2022-08-24T22:20:23.324Z,20.45
2022-08-24T22:22:52.991Z,20.43
2022-08-24T22:25:21.112Z,20.38
2022-08-24T22:27:49.719Z,20.36
2022-08-24T22:30:19.250Z,20.35
2022-08-24T22:32:47.684Z,20.32
2022-08-24T22:35:15.983Z,20.30
2022-08-24T22:37:44.020Z,20.26
2022-08-24T22:40:13.897Z,20.26
2022-08-24T22:42:42.190Z,20.24
2022-08-24T22:45:12.010Z,20.22
2022-08-24T22:47:40.132Z,20.21
2022-08-24T22:50:09.468Z,20.19
2022-08-24T22:52:37.557Z,20.19
2022-08-24T22:55:06.128Z,20.16
2022-08-24T22:57:35.602Z,20.13
2022-08-24T23:00:05.082Z,20.13
2022-08-24T23:02:33.119Z,20.12
2022-08-24T23:05:01.607Z,20.07
2022-08-24T23:07:29.616Z,20.04
2022-08-24T23:09:57.654Z,20.00
2022-08-24T23:12:26.460Z,19.99
2022-08-24T23:14:55.992Z,19.97
2022-08-24T23:17:24.299Z,19.94
2022-08-24T23:20:00.612Z,19.88
2022-08-24T23:22:31.290Z,19.88
2022-08-24T23:25:00.199Z,19.84
2022-08-24T23:27:37.591Z,19.82
2022-08-24T23:30:12.035Z,19.80
2022-08-24T23:32:40.681Z,19.78
2022-08-24T23:35:09.870Z,19.74
2022-08-24T23:37:37.998Z,19.69
2022-08-24T23:40:07.009Z,19.66
2022-08-24T23:42:35.049Z,19.67
2022-08-24T23:45:03.132Z,19.64
2022-08-24T23:47:35.773Z,19.65
2022-08-24T23:50:06.879Z,19.56
2022-08-24T23:52:39.251Z,19.59
2022-08-24T23:55:21.092Z,19.57
2022-08-24T23:57:51.247Z,19.54
